createdAt,value
2019-04-05T00:02:34.583Z,5.67
2019-04-05T00:05:07.297Z,5.20
2019-04-05T00:07:57.121Z,5.80
2019-04-05T00:10:27.674Z,5.67
2019-04-05T00:13:02.010Z,6.07
2019-04-05T00:15:33.601Z,5.90
2019-04-05T00:18:05.775Z,6.07
2019-04-05T00:20:36.811Z,5.43
2019-04-05T00:23:11.656Z,6.13
2019-04-05T00:25:46.504Z,6.70
2019-04-05T00:28:17.420Z,6.90
2019-04-05T00:30:52.503Z,6.63
2019-04-05T00:33:23.324Z,6.13
2019-04-05T00:35:58.082Z,6.53
2019-04-05T00:38:33.467Z,6.30
2019-04-05T00:41:05.055Z,6.20
2019-04-05T00:43:35.640Z,6.77
2019-04-05T00:46:08.085Z,6.70
2019-04-05T00:48:38.597Z,7.07
2019-04-05T00:51:09.436Z,6.50
2019-04-05T00:53:40.022Z,6.50
2019-04-05T00:56:12.894Z,6.60
2019-04-05T00:58:43.326Z,6.23
2019-04-05T01:01:14.108Z,6.60
2019-04-05T01:03:47.959Z,6.77
2019-04-05T01:06:18.798Z,5.80
2019-04-05T01:08:54.236Z,6.73
2019-04-05T01:11:26.190Z,7.23
2019-04-05T01:14:00.493Z,6.80
2019-04-05T01:16:31.067Z,7.07
2019-04-05T01:19:03.993Z,6.40
2019-04-05T01:21:39.820Z,6.63
2019-04-05T01:24:13.677Z,7.13
2019-04-05T01:26:52.760Z,7.00
2019-04-05T01:29:23.606Z,6.43
2019-04-05T01:31:55.660Z,6.43
2019-04-05T01:34:26.497Z,6.90
2019-04-05T01:36:57.314Z,7.07
2019-04-05T01:39:29.161Z,6.03
2019-04-05T01:42:02.029Z,6.40
2019-04-05T01:44:33.091Z,6.47
2019-04-05T01:47:05.074Z,7.03
2019-04-05T01:49:37.111Z,6.83
2019-04-05T01:52:07.654Z,6.23
2019-04-05T01:54:38.064Z,6.47
2019-04-05T01:57:10.344Z,6.53
2019-04-05T01:59:44.727Z,7.33
2019-04-05T02:02:15.181Z,7.33
2019-04-05T02:04:52.801Z,6.10
2019-04-05T02:07:23.378Z,7.03
2019-04-05T02:09:54.256Z,6.73
2019-04-05T02:12:28.836Z,7.43
2019-04-05T02:15:02.889Z,7.00
2019-04-05T02:17:35.817Z,6.47
2019-04-05T02:20:10.178Z,7.00
2019-04-05T02:22:40.419Z,7.20
2019-04-05T02:25:11.486Z,7.07
2019-04-05T02:27:42.804Z,7.20
2019-04-05T02:30:13.210Z,6.63
2019-04-05T02:32:45.394Z,6.70
2019-04-05T02:35:18.976Z,6.17
2019-04-05T02:37:49.554Z,7.20
2019-04-05T02:40:20.422Z,6.50
2019-04-05T02:42:53.543Z,8.03
2019-04-05T02:45:25.062Z,6.20
2019-04-05T02:48:02.098Z,6.83
2019-04-05T02:50:35.225Z,6.50
2019-04-05T02:53:07.937Z,7.10
2019-04-05T02:55:43.389Z,7.30
2019-04-05T02:58:17.594Z,6.87
2019-04-05T03:00:51.921Z,7.13
2019-04-05T03:03:22.880Z,7.60
2019-04-05T03:05:54.607Z,7.97
2019-04-05T03:08:26.985Z,7.37
2019-04-05T03:11:08.823Z,7.93
2019-04-05T03:13:45.900Z,7.53
2019-04-05T03:16:21.249Z,7.63
2019-04-05T03:18:55.809Z,7.37
2019-04-05T03:21:29.550Z,7.50
2019-04-05T03:24:03.819Z,7.50
2019-04-05T03:26:37.401Z,8.43
2019-04-05T03:29:12.720Z,8.40
2019-04-05T03:31:44.358Z,8.87
2019-04-05T03:34:16.561Z,12.30
2019-04-05T03:36:51.432Z,10.83
2019-04-05T03:39:20.642Z,8.70
2019-04-05T03:41:59.571Z,8.83
2019-04-05T03:44:34.584Z,8.10
2019-04-05T03:47:06.413Z,8.63
2019-04-05T03:49:42.129Z,8.67
2019-04-05T03:52:12.922Z,9.50
2019-04-05T03:54:45.740Z,9.43
2019-04-05T03:57:16.280Z,8.80
2019-04-05T03:59:50.031Z,9.00
2019-04-05T04:02:23.649Z,8.47
2019-04-05T04:04:57.951Z,9.03
2019-04-05T04:07:30.940Z,9.33
2019-04-05T04:10:01.740Z,8.77
2019-04-05T04:12:32.483Z,8.60
2019-04-05T04:15:15.210Z,8.57
2019-04-05T04:17:46.289Z,9.83
2019-04-05T04:20:39.270Z,12.67
2019-04-05T04:23:11.676Z,10.33
2019-04-05T04:25:43.211Z,10.23
2019-04-05T04:28:14.482Z,10.23
2019-04-05T04:30:45.673Z,9.97
2019-04-05T04:33:16.275Z,8.70
2019-04-05T04:35:50.438Z,10.57
2019-04-05T04:38:22.372Z,9.80
2019-04-05T04:40:53.019Z,9.60
2019-04-05T04:43:23.607Z,10.03
2019-04-05T04:45:56.682Z,9.63
2019-04-05T04:48:31.772Z,9.90
2019-04-05T04:51:06.993Z,10.93
2019-04-05T04:53:37.633Z,10.10
2019-04-05T04:56:12.897Z,10.57
2019-04-05T04:58:46.217Z,10.43
2019-04-05T05:01:15.695Z,10.77
2019-04-05T05:03:47.966Z,10.00
2019-04-05T05:06:20.875Z,10.03
2019-04-05T05:08:51.405Z,10.13
2019-04-05T05:11:24.847Z,10.93
2019-04-05T05:13:55.409Z,9.57
2019-04-05T05:16:26.178Z,9.83
2019-04-05T05:18:57.127Z,10.63
2019-04-05T05:21:27.843Z,11.03
2019-04-05T05:23:58.427Z,10.67
2019-04-05T05:26:33.895Z,11.10
2019-04-05T05:29:07.793Z,10.47
2019-04-05T05:31:40.751Z,10.37
2019-04-05T05:34:13.796Z,11.00
2019-04-05T05:36:49.506Z,9.93
2019-04-05T05:39:23.463Z,10.97
2019-04-05T05:41:56.177Z,10.40
2019-04-05T05:44:26.857Z,10.63
2019-04-05T05:46:57.118Z,9.70
2019-04-05T05:49:28.848Z,9.90
2019-04-05T05:52:00.474Z,10.37
2019-04-05T05:54:30.750Z,10.20
2019-04-05T05:57:01.397Z,11.30
2019-04-05T05:59:31.699Z,11.80
2019-04-05T06:02:02.036Z,10.87
2019-04-05T06:04:32.292Z,9.60
2019-04-05T06:07:02.730Z,10.13
2019-04-05T06:09:52.129Z,9.47
2019-04-05T06:12:22.447Z,9.20
2019-04-05T06:14:52.983Z,9.10
2019-04-05T06:17:23.235Z,18.07
2019-04-05T06:19:53.529Z,14.80
2019-04-05T06:22:26.763Z,11.60
2019-04-05T06:24:57.177Z,11.37
2019-04-05T06:27:27.467Z,9.93
2019-04-05T06:29:57.761Z,9.67
2019-04-05T06:32:28.131Z,12.40
2019-04-05T06:34:58.491Z,9.30
2019-04-05T06:37:28.872Z,8.03
2019-04-05T06:39:59.307Z,7.37
2019-04-05T06:42:29.599Z,6.60
2019-04-05T06:44:59.939Z,7.60
2019-04-05T06:47:30.236Z,7.10
2019-04-05T06:50:00.539Z,7.57
2019-04-05T06:52:30.886Z,7.30
2019-04-05T06:55:01.268Z,6.70
2019-04-05T06:57:31.641Z,6.73
2019-04-05T07:00:01.984Z,6.17
2019-04-05T07:02:33.972Z,5.87
2019-04-05T07:05:06.160Z,5.83
2019-04-05T07:07:36.476Z,5.77
2019-04-05T07:10:06.885Z,5.83
2019-04-05T07:12:37.136Z,5.47
2019-04-05T07:15:07.510Z,5.80
2019-04-05T07:17:37.944Z,5.50
2019-04-05T07:20:08.416Z,6.40
2019-04-05T07:22:39.550Z,6.17
2019-04-05T07:25:10.088Z,7.20
2019-04-05T07:27:40.360Z,7.23
2019-04-05T07:30:10.824Z,5.93
2019-04-05T07:32:41.196Z,6.87
2019-04-05T07:35:11.466Z,6.20
2019-04-05T07:37:41.792Z,7.13
2019-04-05T07:40:12.171Z,6.67
2019-04-05T07:42:42.483Z,7.10
2019-04-05T07:45:13.038Z,7.03
2019-04-05T07:47:43.392Z,7.77
2019-04-05T07:50:13.758Z,7.50
2019-04-05T07:52:44.115Z,7.63
2019-04-05T07:55:14.983Z,7.13
2019-04-05T07:57:45.330Z,6.80
2019-04-05T08:00:48.571Z,7.00
2019-04-05T08:03:19.731Z,6.33
2019-04-05T08:05:50.973Z,5.77
2019-04-05T08:08:28.529Z,6.03
2019-04-05T08:10:59.341Z,6.37
2019-04-05T08:13:31.367Z,6.00
2019-04-05T08:16:01.713Z,6.47
2019-04-05T08:18:32.082Z,6.27
2019-04-05T08:21:02.393Z,6.67
2019-04-05T08:23:32.832Z,6.50
2019-04-05T08:26:03.231Z,6.87
2019-04-05T08:28:33.546Z,7.07
2019-04-05T08:31:03.917Z,6.93
2019-04-05T08:33:36.539Z,7.53
2019-04-05T08:36:07.121Z,7.03
2019-04-05T08:38:39.887Z,7.57
2019-04-05T08:41:10.674Z,9.80
2019-04-05T08:43:41.026Z,8.10
2019-04-05T08:46:11.384Z,9.67
2019-04-05T08:48:41.670Z,9.30
2019-04-05T08:51:12.021Z,7.77
2019-04-05T08:53:42.318Z,8.20
2019-04-05T08:56:12.623Z,9.17
2019-04-05T08:58:42.952Z,8.87
2019-04-05T09:01:13.402Z,8.73
2019-04-05T09:03:44.751Z,7.57
2019-04-05T09:06:15.943Z,8.47
2019-04-05T09:08:46.389Z,9.13
2019-04-05T09:11:16.730Z,8.47
2019-04-05T09:13:47.041Z,8.63
2019-04-05T09:16:17.441Z,8.80
2019-04-05T09:18:49.483Z,8.67
2019-04-05T09:21:19.911Z,8.20
2019-04-05T09:23:50.285Z,8.43
2019-04-05T09:26:20.619Z,8.17
2019-04-05T09:28:50.935Z,9.23
2019-04-05T09:31:21.255Z,8.60
2019-04-05T09:33:51.551Z,8.57
2019-04-05T09:36:21.833Z,8.87
2019-04-05T09:38:52.119Z,8.93
2019-04-05T09:41:22.563Z,8.20
2019-04-05T09:43:52.988Z,7.90
2019-04-05T09:46:23.360Z,7.47
2019-04-05T09:48:53.651Z,8.63
2019-04-05T09:51:24.241Z,8.47
2019-04-05T09:53:54.557Z,8.70
2019-04-05T09:56:24.840Z,8.37
2019-04-05T09:58:55.155Z,8.57
2019-04-05T10:01:25.591Z,8.63
2019-04-05T10:03:55.965Z,8.57
2019-04-05T10:06:26.338Z,8.63
2019-04-05T10:08:56.676Z,8.57
2019-04-05T10:11:27.051Z,9.00
2019-04-05T10:13:57.349Z,9.03
2019-04-05T10:16:27.715Z,9.60
2019-04-05T10:18:58.026Z,9.70
2019-04-05T10:21:28.381Z,10.57
2019-04-05T10:23:58.656Z,10.47
2019-04-05T10:26:28.922Z,9.47
2019-04-05T10:28:59.242Z,9.20
2019-04-05T10:31:31.166Z,10.30
2019-04-05T10:34:02.182Z,9.77
2019-04-05T10:36:32.472Z,10.93
2019-04-05T10:39:05.130Z,9.40
2019-04-05T10:41:37.262Z,9.50
2019-04-05T10:44:11.841Z,10.17
2019-04-05T10:46:42.195Z,11.33
2019-04-05T10:49:15.105Z,10.90
2019-04-05T10:51:45.461Z,10.50
2019-04-05T10:54:15.906Z,10.23
2019-04-05T10:56:46.370Z,13.97
2019-04-05T10:59:16.870Z,10.47
2019-04-05T11:01:47.508Z,11.23
2019-04-05T11:04:17.988Z,10.03
2019-04-05T11:06:48.377Z,11.27
2019-04-05T11:09:18.842Z,10.47
2019-04-05T11:11:49.306Z,9.80
2019-04-05T11:14:19.633Z,10.13
2019-04-05T11:16:58.473Z,10.43
2019-04-05T11:19:23.597Z,10.50
2019-04-05T11:21:53.896Z,11.37
2019-04-05T11:24:25.603Z,10.07
2019-04-05T11:26:55.940Z,10.90
2019-04-05T11:29:26.367Z,11.17
2019-04-05T11:31:57.650Z,12.53
2019-04-05T11:34:28.198Z,11.33
2019-04-05T11:37:03.046Z,10.87
2019-04-05T11:39:34.140Z,10.83
2019-04-05T11:42:06.128Z,10.37
2019-04-05T11:44:40.783Z,11.30
2019-04-05T11:47:11.161Z,10.77
2019-04-05T11:49:42.591Z,11.70
2019-04-05T11:52:12.980Z,11.40
2019-04-05T11:54:43.790Z,11.40
2019-04-05T11:57:20.686Z,12.97
2019-04-05T11:59:51.416Z,11.83
2019-04-05T12:02:32.475Z,11.80
2019-04-05T12:05:05.324Z,12.67
2019-04-05T12:07:35.625Z,14.37
2019-04-05T12:10:07.593Z,14.30
2019-04-05T12:12:37.916Z,12.60
2019-04-05T12:15:08.527Z,11.87
2019-04-05T12:17:38.987Z,12.03
2019-04-05T12:20:10.289Z,11.40
2019-04-05T12:22:40.763Z,10.57
2019-04-05T12:25:11.287Z,10.73
2019-04-05T12:27:41.544Z,10.77
2019-04-05T12:30:14.165Z,10.90
2019-04-05T12:32:46.517Z,10.80
2019-04-05T12:35:16.752Z,10.13
2019-04-05T12:37:55.822Z,10.03
2019-04-05T12:40:25.208Z,9.50
2019-04-05T12:42:56.685Z,9.60
2019-04-05T12:45:27.157Z,9.27
2019-04-05T12:47:59.141Z,8.47
2019-04-05T12:50:29.717Z,9.00
2019-04-05T12:53:00.390Z,9.00
2019-04-05T12:55:30.799Z,9.13
2019-04-05T12:58:01.222Z,8.50
2019-04-05T13:00:31.597Z,8.23
2019-04-05T13:03:02.019Z,8.63
2019-04-05T13:05:32.537Z,7.80
2019-04-05T13:08:18.574Z,7.30
2019-04-05T13:10:49.543Z,7.20
2019-04-05T13:13:19.928Z,7.07
2019-04-05T13:15:51.978Z,6.33
2019-04-05T13:18:30.711Z,6.53
2019-04-05T13:21:00.218Z,6.67
2019-04-05T13:23:31.480Z,6.30
2019-04-05T13:26:02.024Z,6.37
2019-04-05T13:28:33.597Z,5.93
2019-04-05T13:31:04.146Z,5.90
2019-04-05T13:33:34.523Z,5.60
2019-04-05T13:36:04.995Z,5.43
2019-04-05T13:38:35.374Z,5.57
2019-04-05T13:41:07.213Z,5.57
2019-04-05T13:43:37.547Z,4.90
2019-04-05T13:47:16.236Z,4.83
2019-04-05T13:48:54.115Z,5.10
2019-04-05T13:51:28.660Z,5.90
2019-04-05T13:53:59.393Z,5.80
2019-04-05T13:56:34.858Z,5.60
2019-04-05T13:59:05.226Z,6.00
2019-04-05T14:01:43.480Z,6.83
2019-04-05T14:04:13.837Z,6.73
2019-04-05T14:06:44.227Z,5.80
2019-04-05T14:09:15.681Z,5.10
2019-04-05T14:15:12.879Z,5.87
2019-04-05T14:17:44.802Z,6.57
2019-04-05T14:20:18.779Z,5.30
2019-04-05T14:22:48.659Z,6.20
2019-04-05T14:25:19.768Z,5.27
2019-04-05T14:27:50.092Z,5.13
2019-04-05T14:30:20.387Z,4.80
2019-04-05T14:32:51.789Z,5.08
2019-04-05T14:35:25.346Z,4.50
2019-04-05T14:37:55.881Z,4.10
2019-04-05T14:40:28.940Z,4.37
2019-04-05T14:42:59.060Z,3.93
2019-04-05T14:45:29.445Z,3.53
2019-04-05T14:48:02.797Z,3.97
2019-04-05T14:50:33.108Z,4.23
2019-04-05T14:53:03.840Z,4.33
2019-04-05T14:55:34.661Z,4.00
2019-04-05T14:58:06.075Z,3.83
2019-04-05T15:00:36.696Z,4.17
2019-04-05T15:03:07.327Z,3.87
2019-04-05T15:05:37.753Z,3.37
2019-04-05T15:08:08.503Z,3.40
2019-04-05T15:10:38.969Z,3.37
2019-04-05T15:13:09.370Z,2.80
2019-04-05T15:15:39.813Z,2.87
2019-04-05T15:18:10.323Z,2.63
2019-04-05T15:20:40.895Z,2.50
2019-04-05T15:23:13.926Z,2.90
2019-04-05T15:25:43.907Z,3.03
2019-04-05T15:28:15.337Z,2.43
2019-04-05T15:30:56.116Z,2.97
2019-04-05T15:33:21.366Z,4.17
2019-04-05T15:35:51.746Z,2.47
2019-04-05T15:38:24.544Z,2.67
2019-04-05T15:40:55.252Z,2.80
2019-04-05T15:43:25.670Z,2.67
2019-04-05T15:45:55.974Z,2.77
2019-04-05T15:48:26.285Z,2.60
2019-04-05T15:50:59.100Z,2.33
2019-04-05T15:53:31.896Z,1.90
2019-04-05T15:56:03.855Z,1.90
2019-04-05T15:58:36.231Z,2.37
2019-04-05T16:01:06.795Z,2.10
2019-04-05T16:03:42.570Z,1.93
2019-04-05T16:06:17.536Z,1.80
2019-04-05T16:08:53.737Z,1.90
2019-04-05T16:11:24.031Z,2.10
2019-04-05T16:13:54.477Z,1.97
2019-04-05T16:16:30.739Z,2.40
2019-04-05T16:19:01.285Z,1.97
2019-04-05T16:21:31.807Z,2.00
2019-04-05T16:24:02.137Z,1.90
2019-04-05T16:26:32.709Z,1.50
2019-04-05T16:29:03.104Z,1.53
2019-04-05T16:31:33.597Z,1.67
2019-04-05T16:34:03.813Z,2.07
2019-04-05T16:36:35.197Z,2.10
2019-04-05T16:39:11.493Z,1.70
2019-04-05T16:41:41.891Z,1.50
2019-04-05T16:44:12.265Z,1.40
2019-04-05T16:46:42.850Z,1.40
2019-04-05T16:49:13.219Z,1.30
2019-04-05T16:51:43.627Z,1.97
2019-04-05T16:54:21.272Z,1.20
2019-04-05T16:56:57.746Z,1.20
2019-04-05T16:59:52.087Z,1.00
2019-04-05T17:02:16.874Z,1.50
2019-04-05T17:04:47.372Z,1.00
2019-04-05T17:07:24.217Z,1.60
2019-04-05T17:09:56.181Z,1.30
2019-04-05T17:12:26.499Z,1.20
2019-04-05T17:14:58.030Z,1.27
2019-04-05T17:17:33.649Z,1.00
2019-04-05T17:20:05.185Z,1.10
2019-04-05T17:22:37.266Z,0.90
2019-04-05T17:25:08.377Z,1.10
2019-04-05T17:27:39.006Z,0.63
2019-04-05T17:30:09.976Z,0.93
2019-04-05T17:32:41.735Z,1.10
2019-04-05T17:35:12.411Z,1.00
2019-04-05T17:37:43.907Z,0.90
2019-04-05T17:40:14.255Z,1.00
2019-04-05T17:42:44.824Z,1.40
2019-04-05T17:45:15.445Z,1.30
2019-04-05T17:47:45.896Z,1.10
2019-04-05T17:50:28.035Z,1.10
2019-04-05T17:53:11.226Z,1.17
2019-04-05T17:55:30.775Z,1.00
2019-04-05T17:58:03.379Z,1.20
2019-04-05T18:00:33.782Z,1.10
2019-04-05T18:03:05.710Z,1.10
2019-04-05T18:05:38.687Z,1.00
2019-04-05T18:08:09.197Z,1.17
2019-04-05T18:10:39.629Z,0.80
2019-04-05T18:13:09.955Z,1.00
2019-04-05T18:15:51.839Z,1.00
2019-04-05T18:18:16.322Z,1.20
2019-04-05T18:20:47.061Z,0.90
2019-04-05T18:23:24.855Z,0.90
2019-04-05T18:25:54.895Z,1.10
2019-04-05T18:28:30.250Z,1.57
2019-04-05T18:31:02.528Z,2.27
2019-04-05T18:33:32.978Z,1.90
2019-04-05T18:36:05.318Z,1.93
2019-04-05T18:38:35.812Z,1.87
2019-04-05T18:41:06.338Z,2.27
2019-04-05T18:43:39.679Z,2.33
2019-04-05T18:46:15.799Z,2.70
2019-04-05T18:48:49.685Z,2.40
2019-04-05T18:51:20.322Z,2.83
2019-04-05T18:53:52.100Z,2.83
2019-04-05T18:56:22.873Z,3.13
2019-04-05T18:58:53.375Z,3.80
2019-04-05T19:01:23.866Z,3.83
2019-04-05T19:03:57.349Z,3.73
2019-04-05T19:06:30.747Z,3.27
2019-04-05T19:09:03.113Z,3.67
2019-04-05T19:11:35.235Z,4.50
2019-04-05T19:14:05.962Z,4.27
2019-04-05T19:16:36.571Z,4.50
2019-04-05T19:19:30.350Z,4.30
2019-04-05T19:22:05.304Z,4.30
2019-04-05T19:24:38.539Z,3.90
2019-04-05T19:27:12.283Z,4.40
2019-04-05T19:29:47.922Z,4.63
2019-04-05T19:50:23.177Z,4.77
2019-04-05T19:52:50.809Z,4.50
2019-04-05T19:55:24.181Z,4.00
2019-04-05T19:57:57.659Z,4.27
2019-04-05T20:00:29.254Z,4.70
2019-04-05T20:03:00.386Z,4.37
2019-04-05T20:05:36.031Z,4.30
2019-04-05T20:08:11.022Z,4.07
2019-04-05T20:10:56.939Z,4.30
2019-04-05T20:13:30.800Z,4.27
2019-04-05T20:16:07.552Z,4.47
2019-04-05T20:18:41.370Z,4.57
2019-04-05T20:21:12.796Z,4.37
2019-04-05T20:23:47.935Z,4.20
2019-04-05T20:26:20.477Z,4.40
2019-04-05T20:28:56.006Z,4.27
2019-04-05T20:31:30.208Z,5.03
2019-04-05T20:34:02.713Z,4.60
2019-04-05T20:36:33.463Z,5.30
2019-04-05T20:39:05.515Z,4.50
2019-04-05T20:41:38.910Z,4.43
2019-04-05T20:44:12.706Z,4.90
2019-04-05T20:46:43.840Z,4.93
2019-04-05T20:49:15.123Z,4.40
2019-04-05T20:51:53.558Z,4.50
2019-04-05T20:54:27.848Z,4.77
2019-04-05T20:57:01.131Z,4.50
2019-04-05T20:59:33.364Z,4.90
2019-04-05T21:02:07.719Z,5.20
2019-04-05T21:04:40.706Z,4.70
2019-04-05T21:07:13.222Z,5.50
2019-04-05T21:09:43.728Z,4.97
2019-04-05T21:12:14.523Z,4.80
2019-04-05T21:14:44.988Z,5.43
2019-04-05T21:17:15.642Z,6.03
2019-04-05T21:19:46.172Z,6.33
2019-04-05T21:22:16.588Z,6.20
2019-04-05T21:24:47.114Z,5.57
2019-04-05T21:27:18.235Z,5.57
2019-04-05T21:29:48.549Z,5.77
2019-04-05T21:32:18.912Z,6.07
2019-04-05T21:34:49.657Z,5.83
2019-04-05T21:37:20.005Z,6.50
2019-04-05T21:39:50.387Z,6.60
2019-04-05T21:42:20.735Z,6.30
2019-04-05T21:44:51.140Z,6.10
2019-04-05T21:47:22.710Z,6.20
2019-04-05T21:49:53.252Z,6.03
2019-04-05T21:52:23.734Z,6.00
2019-04-05T21:54:54.144Z,6.30
2019-04-05T21:57:26.665Z,7.63
2019-04-05T21:59:57.121Z,7.60
2019-04-05T22:02:27.801Z,6.80
2019-04-05T22:04:58.243Z,6.83
2019-04-05T22:07:28.651Z,7.00
2019-04-05T22:09:59.098Z,6.70
2019-04-05T22:12:33.499Z,6.77
2019-04-05T22:15:04.310Z,6.50
2019-04-05T22:17:34.764Z,6.70
2019-04-05T22:20:10.264Z,7.60
2019-04-05T22:22:40.638Z,7.13
2019-04-05T22:25:12.186Z,7.10
2019-04-05T22:27:42.600Z,6.80
2019-04-05T22:30:14.639Z,7.03
2019-04-05T22:32:46.776Z,6.57
2019-04-05T22:35:17.248Z,7.03
2019-04-05T22:37:47.739Z,7.20
2019-04-05T22:40:18.157Z,6.97
2019-04-05T22:42:51.345Z,7.03
2019-04-05T22:45:22.020Z,7.33
2019-04-05T22:47:52.739Z,7.87
2019-04-05T22:50:23.200Z,7.57
2019-04-05T22:52:53.686Z,7.63
2019-04-05T22:55:24.096Z,8.50
2019-04-05T22:57:56.071Z,7.90
2019-04-05T23:00:26.493Z,7.53
2019-04-05T23:02:56.914Z,7.80
2019-04-05T23:05:27.367Z,7.70
2019-04-05T23:07:57.867Z,7.93
2019-04-05T23:10:28.269Z,7.33
2019-04-05T23:12:58.777Z,7.37
2019-04-05T23:15:29.149Z,7.80
2019-04-05T23:18:00.318Z,7.60
2019-04-05T23:20:30.718Z,8.77
2019-04-05T23:23:01.175Z,8.00
2019-04-05T23:25:31.631Z,8.77
2019-04-05T23:28:02.082Z,8.13
2019-04-05T23:30:33.842Z,8.27
2019-04-05T23:33:04.439Z,9.97
2019-04-05T23:35:34.888Z,9.40
2019-04-05T23:38:05.419Z,9.03
2019-04-05T23:40:35.892Z,9.40
2019-04-05T23:43:06.403Z,8.60
2019-04-05T23:45:36.892Z,10.63
2019-04-05T23:48:07.496Z,9.00
2019-04-05T23:50:37.992Z,9.60
2019-04-05T23:53:08.522Z,9.87
2019-04-05T23:55:39.150Z,9.47
2019-04-05T23:58:12.549Z,10.30
